Woodsboro, Texas
Current Conditions -  °F | °C
As of 8:53 PM on Saturday 20 Dec 2014 (Local Time) from KRKP Reporting Station
Overcast Overcast  
Wind Chill: 55°   Ceiling: 1300
Heat Index: 55°   Visibility: 10mi
Dew Point: 51°   Wind: 6mph
Humidity: 86%   Direction: 20°NNE
Pressure: 30.17"   Gusts: NA
Location:  28.24°N, 97.32°W
Report Text: KRKP 210253Z AUTO 02005KT 10SM OVC013 13/11 A3017 RMK AO2 SLP218 T01280106 51007
Loading
Personal Weather Stations






























Interactive Weather Map New forecast layout! Learn more

10-Day Weather Forecast

Advertisements
Track Severe Weather on mobile